Sebastopol, California
Current Conditions -  °F | °C
As of 3:53 PM on Friday 21 Nov 2014 (Local Time) from KSTS Reporting Station
Haze Haze  
Wind Chill: 57°   Ceiling: 4700
Heat Index: 57°   Visibility: 6mi
Dew Point: 51°   Wind: 0mph
Humidity: 81%   Direction: NA
Pressure: 30.08"   Gusts: NA
Location:  38.4°N, 122.82°W
Report Text: KSTS 212353Z 00000KT 6SM HZ FEW022 OVC047 14/11 A3008 RMK AO2 SLP178 T01390106 10139 20089 50000
Loading
Personal Weather Stations






























Interactive Weather Map New forecast layout! Learn more

10-Day Weather Forecast

Advertisements
Track Severe Weather on mobile